createdAt,value
2019-02-02T00:00:34.025Z,24.53
2019-02-02T00:01:34.149Z,24.53
2019-02-02T00:02:34.115Z,24.55
2019-02-02T00:03:34.100Z,24.55
2019-02-02T00:04:34.087Z,24.50
2019-02-02T00:05:34.098Z,24.55
2019-02-02T00:06:34.223Z,24.50
2019-02-02T00:07:34.138Z,24.47
2019-02-02T00:08:34.160Z,24.46
2019-02-02T00:09:34.179Z,24.44
2019-02-02T00:10:34.189Z,24.41
2019-02-02T00:11:34.221Z,24.41
2019-02-02T00:12:34.368Z,24.36
2019-02-02T00:13:34.252Z,24.43
2019-02-02T00:14:34.281Z,24.28
2019-02-02T00:15:34.433Z,24.32
2019-02-02T00:16:34.304Z,24.18
2019-02-02T00:17:34.489Z,24.21
2019-02-02T00:18:34.349Z,24.28
2019-02-02T00:19:34.357Z,24.21
2019-02-02T00:20:34.427Z,24.26
2019-02-02T00:21:34.512Z,24.13
2019-02-02T00:22:34.551Z,24.07
2019-02-02T00:23:34.542Z,24.06
2019-02-02T00:24:34.458Z,24.04
2019-02-02T00:25:34.472Z,24.10
2019-02-02T00:26:34.498Z,24.07
2019-02-02T00:27:41.041Z,24.04
2019-02-02T00:28:34.516Z,23.99
2019-02-02T00:29:34.556Z,24.04
2019-02-02T00:30:34.548Z,24.04
2019-02-02T00:31:34.590Z,24.04
2019-02-02T00:32:34.740Z,24.09
2019-02-02T00:33:34.595Z,24.00
2019-02-02T00:34:34.740Z,23.96
2019-02-02T00:35:34.682Z,24.03
2019-02-02T00:36:34.771Z,24.09
2019-02-02T00:37:34.889Z,24.00
2019-02-02T00:38:34.802Z,23.94
2019-02-02T00:39:34.821Z,24.03
2019-02-02T00:40:34.727Z,24.01
2019-02-02T00:41:34.761Z,23.91
2019-02-02T00:42:34.805Z,23.95
2019-02-02T00:43:34.906Z,23.92
2019-02-02T00:44:34.789Z,23.79
2019-02-02T00:45:34.924Z,23.79
2019-02-02T00:46:35.029Z,23.81
2019-02-02T00:47:34.958Z,23.82
2019-02-02T00:48:34.974Z,23.81
2019-02-02T00:49:34.892Z,23.82
2019-02-02T00:50:34.903Z,23.89
2019-02-02T00:51:35.019Z,23.79
2019-02-02T00:52:34.930Z,23.77
2019-02-02T00:53:35.069Z,23.70
2019-02-02T00:54:35.086Z,23.64
2019-02-02T00:55:35.095Z,23.66
2019-02-02T00:56:35.214Z,23.59
2019-02-02T00:57:35.131Z,23.69
2019-02-02T00:58:35.146Z,23.66
2019-02-02T00:59:35.172Z,23.66
2019-02-02T01:00:35.076Z,23.62
2019-02-02T01:01:35.191Z,23.67
2019-02-02T01:02:35.221Z,23.62
2019-02-02T01:03:35.125Z,23.55
2019-02-02T01:04:35.127Z,23.62
2019-02-02T01:05:35.144Z,23.55
2019-02-02T01:06:35.313Z,23.51
2019-02-02T01:07:35.186Z,23.56
2019-02-02T01:08:35.217Z,23.51
2019-02-02T01:09:35.336Z,23.56
2019-02-02T01:10:35.246Z,23.52
2019-02-02T01:11:35.464Z,23.54
2019-02-02T01:12:35.390Z,23.56
2019-02-02T01:13:35.301Z,23.48
2019-02-02T01:14:35.332Z,23.55
2019-02-02T01:15:35.330Z,23.58
2019-02-02T01:16:35.552Z,23.54
2019-02-02T01:17:35.471Z,23.58
2019-02-02T01:18:35.488Z,23.54
2019-02-02T01:19:35.508Z,23.54
2019-02-02T01:20:35.398Z,23.51
2019-02-02T01:21:35.580Z,23.51
2019-02-02T01:22:35.421Z,23.49
2019-02-02T01:23:35.451Z,23.52
2019-02-02T01:24:35.589Z,23.44
2019-02-02T01:25:35.617Z,23.47
2019-02-02T01:26:35.558Z,23.42
2019-02-02T01:27:35.568Z,23.49
2019-02-02T01:28:35.548Z,23.47
2019-02-02T01:29:35.582Z,23.44
2019-02-02T01:30:35.688Z,23.36
2019-02-02T01:31:35.693Z,23.42
2019-02-02T01:32:35.730Z,23.39
2019-02-02T01:33:35.752Z,23.37
2019-02-02T01:34:35.647Z,23.32
2019-02-02T01:35:35.656Z,23.34
2019-02-02T01:36:35.822Z,23.33
2019-02-02T01:37:35.704Z,23.36
2019-02-02T01:38:35.834Z,23.44
2019-02-02T01:39:35.727Z,23.40
2019-02-02T01:40:35.759Z,23.44
2019-02-02T01:41:35.976Z,23.39
2019-02-02T01:42:35.793Z,23.44
2019-02-02T01:43:35.780Z,23.29
2019-02-02T01:44:35.937Z,23.36
2019-02-02T01:45:35.941Z,23.36
2019-02-02T01:46:35.982Z,23.37
2019-02-02T01:47:35.863Z,23.29
2019-02-02T01:48:35.992Z,23.20
2019-02-02T01:49:36.017Z,23.21
2019-02-02T01:50:36.028Z,23.18
2019-02-02T01:51:36.015Z,23.25
2019-02-02T01:52:36.059Z,23.23
2019-02-02T01:53:35.954Z,23.20
2019-02-02T01:54:38.328Z,23.26
2019-02-02T01:55:35.998Z,23.25
2019-02-02T01:56:36.138Z,23.21
2019-02-02T01:57:36.021Z,23.23
2019-02-02T01:58:36.055Z,23.17
2019-02-02T01:59:36.066Z,23.13
2019-02-02T02:00:36.193Z,23.21
2019-02-02T02:01:36.157Z,23.11
2019-02-02T02:02:36.131Z,23.13
2019-02-02T02:03:36.176Z,23.13
2019-02-02T02:04:36.155Z,23.06
2019-02-02T02:05:36.290Z,23.11
2019-02-02T02:06:36.355Z,23.08
2019-02-02T02:07:36.316Z,23.06
2019-02-02T02:08:36.240Z,23.02
2019-02-02T02:09:36.246Z,22.99
2019-02-02T02:10:36.273Z,22.86
2019-02-02T02:11:36.324Z,22.92
2019-02-02T02:12:36.399Z,22.92
2019-02-02T02:13:36.415Z,23.02
2019-02-02T02:14:36.432Z,22.88
2019-02-02T02:15:36.449Z,23.02
2019-02-02T02:16:36.402Z,22.93
2019-02-02T02:17:36.493Z,22.92
2019-02-02T02:18:36.375Z,22.93
2019-02-02T02:19:36.522Z,22.98
2019-02-02T02:20:36.440Z,22.89
2019-02-02T02:21:36.520Z,22.91
2019-02-02T02:22:41.156Z,23.02
2019-02-02T02:23:36.578Z,23.06
2019-02-02T02:24:36.500Z,23.16
2019-02-02T02:25:36.510Z,23.21
2019-02-02T02:26:36.736Z,23.21
2019-02-02T02:27:36.538Z,23.25
2019-02-02T02:28:36.671Z,23.23
2019-02-02T02:29:36.567Z,23.34
2019-02-02T02:30:36.576Z,23.21
2019-02-02T02:31:36.710Z,23.13
2019-02-02T02:32:36.630Z,23.11
2019-02-02T02:33:36.632Z,23.04
2019-02-02T02:34:36.767Z,23.04
2019-02-02T02:35:36.783Z,22.92
2019-02-02T02:36:36.849Z,22.91
2019-02-02T02:37:36.826Z,22.83
2019-02-02T02:38:36.718Z,22.86
2019-02-02T02:39:36.750Z,22.77
2019-02-02T02:40:36.743Z,22.80
2019-02-02T02:41:36.827Z,22.78
2019-02-02T02:42:36.777Z,22.59
2019-02-02T02:43:36.817Z,22.71
2019-02-02T02:44:36.829Z,22.76
2019-02-02T02:45:36.846Z,22.74
2019-02-02T02:46:37.073Z,22.73
2019-02-02T02:47:36.980Z,22.68
2019-02-02T02:48:37.002Z,22.61
2019-02-02T02:49:36.909Z,22.53
2019-02-02T02:50:36.909Z,22.51
2019-02-02T02:51:37.151Z,22.53
2019-02-02T02:52:37.069Z,22.52
2019-02-02T02:53:37.091Z,22.46
2019-02-02T02:54:37.106Z,22.52
2019-02-02T02:55:37.116Z,22.40
2019-02-02T02:56:37.183Z,22.51
2019-02-02T02:57:37.162Z,22.38
2019-02-02T02:58:41.647Z,22.51
2019-02-02T02:59:37.083Z,22.46
2019-02-02T03:00:37.200Z,22.51
2019-02-02T03:01:37.215Z,22.41
2019-02-02T03:02:37.110Z,22.47
2019-02-02T03:03:37.131Z,22.43
2019-02-02T03:04:37.167Z,22.40
2019-02-02T03:05:37.293Z,22.44
2019-02-02T03:06:37.326Z,22.58
2019-02-02T03:07:37.202Z,22.47
2019-02-02T03:08:37.212Z,22.49
2019-02-02T03:09:37.234Z,22.41
2019-02-02T03:10:37.278Z,22.41
2019-02-02T03:11:37.362Z,22.55
2019-02-02T03:12:37.278Z,22.49
2019-02-02T03:13:37.300Z,22.56
2019-02-02T03:14:37.434Z,22.51
2019-02-02T03:15:37.334Z,22.68
2019-02-02T03:16:37.568Z,22.70
2019-02-02T03:17:37.373Z,22.71
2019-02-02T03:18:37.369Z,22.76
2019-02-02T03:19:37.512Z,22.68
2019-02-02T03:20:37.417Z,22.74
2019-02-02T03:21:37.540Z,22.68
2019-02-02T03:22:37.447Z,22.63
2019-02-02T03:23:37.465Z,22.63
2019-02-02T03:24:37.502Z,22.59
2019-02-02T03:25:37.514Z,22.62
2019-02-02T03:26:37.679Z,22.46
2019-02-02T03:27:37.646Z,22.52
2019-02-02T03:28:37.575Z,22.51
2019-02-02T03:29:37.558Z,22.58
2019-02-02T03:30:37.587Z,22.70
2019-02-02T03:31:37.817Z,22.70
2019-02-02T03:32:37.624Z,22.59
2019-02-02T03:33:37.618Z,22.63
2019-02-02T03:34:37.651Z,22.63
2019-02-02T03:35:37.674Z,22.61
2019-02-02T03:36:37.721Z,22.62
2019-02-02T03:37:37.809Z,22.68
2019-02-02T03:38:37.713Z,22.70
2019-02-02T03:39:37.739Z,22.63
2019-02-02T03:40:37.799Z,22.78
2019-02-02T03:41:37.862Z,22.68
2019-02-02T03:42:37.816Z,22.71
2019-02-02T03:43:37.907Z,22.78
2019-02-02T03:44:37.927Z,22.61
2019-02-02T03:45:40.656Z,22.61
2019-02-02T03:46:37.910Z,22.58
2019-02-02T03:47:37.853Z,22.53
2019-02-02T03:48:37.881Z,22.43
2019-02-02T03:49:37.906Z,22.43
2019-02-02T03:50:38.033Z,22.55
2019-02-02T03:51:38.087Z,22.53
2019-02-02T03:52:38.279Z,22.62
2019-02-02T03:53:41.007Z,22.77
2019-02-02T03:54:38.091Z,22.74
2019-02-02T03:55:38.114Z,22.88
2019-02-02T03:56:38.073Z,22.93
2019-02-02T03:57:38.027Z,22.93
2019-02-02T03:58:38.168Z,22.93
2019-02-02T03:59:38.075Z,22.91
2019-02-02T04:00:38.126Z,22.95
2019-02-02T04:01:38.207Z,22.83
2019-02-02T04:02:38.230Z,22.81
2019-02-02T04:03:38.131Z,22.74
2019-02-02T04:04:38.131Z,22.67
2019-02-02T04:05:38.151Z,22.61
2019-02-02T04:06:38.388Z,22.49
2019-02-02T04:07:38.302Z,22.51
2019-02-02T04:08:38.199Z,22.46
2019-02-02T04:09:38.228Z,22.43
2019-02-02T04:10:38.289Z,22.43
2019-02-02T04:11:38.440Z,22.41
2019-02-02T04:12:38.293Z,22.47
2019-02-02T04:13:38.403Z,22.38
2019-02-02T04:14:38.346Z,22.36
2019-02-02T04:15:38.305Z,22.41
2019-02-02T04:16:38.610Z,22.44
2019-02-02T04:17:38.362Z,22.46
2019-02-02T04:18:38.480Z,22.47
2019-02-02T04:19:38.501Z,22.43
2019-02-02T04:20:38.386Z,22.41
2019-02-02T04:21:38.527Z,22.47
2019-02-02T04:22:38.561Z,22.55
2019-02-02T04:23:38.495Z,22.62
2019-02-02T04:24:38.460Z,22.65
2019-02-02T04:25:38.537Z,22.62
2019-02-02T04:26:38.718Z,22.52
2019-02-02T04:27:38.508Z,22.53
2019-02-02T04:28:38.655Z,22.38
2019-02-02T04:29:38.539Z,22.41
2019-02-02T04:30:38.690Z,22.44
2019-02-02T04:31:38.682Z,22.41
2019-02-02T04:32:38.589Z,22.52
2019-02-02T04:33:38.622Z,22.44
2019-02-02T04:34:38.630Z,22.52
2019-02-02T04:35:38.653Z,22.58
2019-02-02T04:36:38.758Z,22.47
2019-02-02T04:37:38.795Z,22.55
2019-02-02T04:38:38.697Z,22.49
2019-02-02T04:39:38.825Z,22.53
2019-02-02T04:40:38.737Z,22.51
2019-02-02T04:41:38.910Z,22.52
2019-02-02T04:42:38.812Z,22.61
2019-02-02T04:43:38.785Z,22.67
2019-02-02T04:44:38.907Z,22.63
2019-02-02T04:45:38.923Z,22.63
2019-02-02T04:46:39.038Z,22.65
2019-02-02T04:47:38.823Z,22.70
2019-02-02T04:48:38.872Z,22.59
2019-02-02T04:49:38.996Z,22.61
2019-02-02T04:50:39.009Z,22.63
2019-02-02T04:51:39.118Z,22.62
2019-02-02T04:52:38.917Z,22.65
2019-02-02T04:53:38.989Z,22.58
2019-02-02T04:54:38.962Z,22.65
2019-02-02T04:55:38.980Z,22.65
2019-02-02T04:56:39.155Z,22.71
2019-02-02T04:57:39.000Z,22.73
2019-02-02T04:58:39.137Z,22.68
2019-02-02T04:59:39.045Z,22.71
2019-02-02T05:00:39.079Z,22.73
2019-02-02T05:01:39.333Z,22.63
2019-02-02T05:02:39.086Z,22.58
2019-02-02T05:03:39.213Z,22.61
2019-02-02T05:04:39.125Z,22.55
2019-02-02T05:05:39.143Z,22.51
2019-02-02T05:06:39.236Z,22.40
2019-02-02T05:07:39.183Z,22.40
2019-02-02T05:08:39.304Z,22.34
2019-02-02T05:09:39.199Z,22.22
2019-02-02T05:10:39.209Z,22.19
2019-02-02T05:11:39.494Z,22.26
2019-02-02T05:12:39.248Z,22.19
2019-02-02T05:13:39.264Z,22.19
2019-02-02T05:14:39.302Z,22.22
2019-02-02T05:15:39.287Z,22.34
2019-02-02T05:16:39.432Z,22.33
2019-02-02T05:17:39.369Z,22.21
2019-02-02T05:18:39.459Z,22.23
2019-02-02T05:19:39.472Z,22.21
2019-02-02T05:20:39.377Z,22.36
2019-02-02T05:21:39.604Z,22.38
2019-02-02T05:22:39.409Z,22.30
2019-02-02T05:23:39.444Z,22.44
2019-02-02T05:24:39.441Z,22.46
2019-02-02T05:25:39.448Z,22.40
2019-02-02T05:26:39.582Z,22.46
2019-02-02T05:27:39.604Z,22.46
2019-02-02T05:28:39.629Z,22.49
2019-02-02T05:29:41.549Z,22.47
2019-02-02T05:30:39.543Z,22.43
2019-02-02T05:31:39.769Z,22.43
2019-02-02T05:32:39.571Z,22.55
2019-02-02T05:33:39.707Z,22.43
2019-02-02T05:34:39.591Z,22.49
2019-02-02T05:35:39.642Z,22.43
2019-02-02T05:36:39.775Z,22.44
2019-02-02T05:37:39.650Z,22.49
2019-02-02T05:38:39.675Z,22.53
2019-02-02T05:39:39.689Z,22.44
2019-02-02T05:40:39.717Z,22.53
2019-02-02T05:41:39.810Z,22.44
2019-02-02T05:42:39.847Z,22.43
2019-02-02T05:43:39.863Z,22.46
2019-02-02T05:44:39.753Z,22.40
2019-02-02T05:45:39.778Z,22.46
2019-02-02T05:46:39.906Z,22.49
2019-02-02T05:47:39.856Z,22.34
2019-02-02T05:48:39.941Z,22.36
2019-02-02T05:49:39.842Z,22.43
2019-02-02T05:50:39.880Z,22.33
2019-02-02T05:51:39.986Z,22.31
2019-02-02T05:52:40.029Z,22.30
2019-02-02T05:53:40.022Z,22.36
2019-02-02T05:54:39.920Z,22.30
2019-02-02T05:55:39.916Z,22.38
2019-02-02T05:56:39.939Z,22.31
2019-02-02T05:57:40.119Z,22.34
2019-02-02T05:58:40.096Z,22.41
2019-02-02T05:59:39.999Z,22.30
2019-02-02T06:00:40.010Z,22.33
2019-02-02T06:01:40.040Z,22.33
2019-02-02T06:02:40.111Z,22.22
2019-02-02T06:03:40.081Z,22.25
2019-02-02T06:04:40.140Z,22.25
2019-02-02T06:05:40.212Z,22.21
2019-02-02T06:06:40.223Z,22.08
2019-02-02T06:07:40.338Z,22.04
2019-02-02T06:08:40.141Z,22.03
2019-02-02T06:09:40.166Z,21.94
2019-02-02T06:10:40.290Z,21.97
2019-02-02T06:11:40.183Z,22.00
2019-02-02T06:12:40.305Z,21.97
2019-02-02T06:13:40.227Z,21.97
2019-02-02T06:14:40.226Z,21.96
2019-02-02T06:15:40.268Z,22.10
2019-02-02T06:16:40.390Z,22.06
2019-02-02T06:17:40.375Z,22.00
2019-02-02T06:18:40.293Z,22.03
2019-02-02T06:19:40.434Z,21.92
2019-02-02T06:20:40.340Z,21.88
2019-02-02T06:21:40.349Z,21.85
2019-02-02T06:22:40.507Z,21.85
2019-02-02T06:23:40.398Z,21.81
2019-02-02T06:24:40.481Z,21.75
2019-02-02T06:25:40.400Z,21.74
2019-02-02T06:26:40.433Z,21.75
2019-02-02T06:27:40.487Z,21.70
2019-02-02T06:28:40.469Z,21.74
2019-02-02T06:29:40.519Z,21.80
2019-02-02T06:30:40.499Z,21.81
2019-02-02T06:31:40.620Z,21.83
2019-02-02T06:32:40.642Z,21.81
2019-02-02T06:33:40.557Z,21.85
2019-02-02T06:34:40.558Z,21.91
2019-02-02T06:35:40.562Z,21.83
2019-02-02T06:36:40.581Z,21.84
2019-02-02T06:37:40.768Z,21.89
2019-02-02T06:38:40.616Z,22.03
2019-02-02T06:39:40.627Z,22.01
2019-02-02T06:40:40.761Z,21.96
2019-02-02T06:41:40.788Z,21.88
2019-02-02T06:42:40.904Z,21.99
2019-02-02T06:43:40.682Z,21.94
2019-02-02T06:44:40.721Z,21.97
2019-02-02T06:45:40.855Z,22.06
2019-02-02T06:46:43.787Z,22.06
2019-02-02T06:47:40.841Z,21.92
2019-02-02T06:48:40.824Z,21.96
2019-02-02T06:49:40.913Z,21.96
2019-02-02T06:50:40.929Z,21.97
2019-02-02T06:51:40.936Z,21.91
2019-02-02T06:52:40.883Z,21.91
2019-02-02T06:53:40.857Z,21.97
2019-02-02T06:54:40.862Z,21.96
2019-02-02T06:55:40.976Z,21.92
2019-02-02T06:56:40.886Z,21.96
2019-02-02T06:57:40.903Z,21.96
2019-02-02T06:58:40.911Z,21.91
2019-02-02T06:59:40.947Z,21.88
2019-02-02T07:00:41.178Z,22.00
2019-02-02T07:01:41.093Z,21.96
2019-02-02T07:02:41.111Z,21.96
2019-02-02T07:03:41.011Z,22.12
2019-02-02T07:04:41.035Z,22.12
2019-02-02T07:05:41.188Z,22.15
2019-02-02T07:06:41.081Z,22.15
2019-02-02T07:07:41.208Z,22.12
2019-02-02T07:08:41.102Z,22.15
2019-02-02T07:09:41.220Z,22.04
2019-02-02T07:10:41.343Z,22.07
2019-02-02T07:11:41.136Z,21.97
2019-02-02T07:12:41.157Z,21.96
2019-02-02T07:13:41.166Z,21.96
2019-02-02T07:14:41.177Z,21.97
2019-02-02T07:15:41.309Z,21.91
2019-02-02T07:16:41.213Z,21.78
2019-02-02T07:17:41.223Z,21.92
2019-02-02T07:18:41.239Z,21.85
2019-02-02T07:19:41.280Z,21.84
2019-02-02T07:20:41.438Z,21.84
2019-02-02T07:21:41.405Z,21.84
2019-02-02T07:22:41.288Z,21.91
2019-02-02T07:23:41.308Z,21.75
2019-02-02T07:24:41.351Z,21.74
2019-02-02T07:25:41.464Z,21.78
2019-02-02T07:26:41.417Z,21.69
2019-02-02T07:27:41.407Z,21.77
2019-02-02T07:28:41.611Z,21.69
2019-02-02T07:29:41.418Z,21.65
2019-02-02T07:30:41.526Z,21.60
2019-02-02T07:31:41.464Z,21.66
2019-02-02T07:32:41.472Z,21.63
2019-02-02T07:33:41.526Z,21.72
2019-02-02T07:34:41.610Z,21.66
2019-02-02T07:35:41.680Z,21.60
2019-02-02T07:36:41.645Z,21.62
2019-02-02T07:37:41.553Z,21.69
2019-02-02T07:38:41.682Z,21.66
2019-02-02T07:39:41.594Z,21.68
2019-02-02T07:40:41.699Z,21.68
2019-02-02T07:41:41.729Z,21.72
2019-02-02T07:42:41.603Z,21.72
2019-02-02T07:43:41.618Z,21.69
2019-02-02T07:44:41.770Z,21.65
2019-02-02T07:45:41.884Z,21.69
2019-02-02T07:46:41.797Z,21.63
2019-02-02T07:47:41.813Z,21.66
2019-02-02T07:48:41.720Z,21.68
2019-02-02T07:49:41.731Z,21.65
2019-02-02T07:50:41.808Z,21.66
2019-02-02T07:51:41.770Z,21.65
2019-02-02T07:52:41.779Z,21.65
2019-02-02T07:53:41.786Z,21.62
2019-02-02T07:54:41.931Z,21.58
2019-02-02T07:55:42.040Z,21.53
2019-02-02T07:56:41.839Z,21.58
2019-02-02T07:57:41.850Z,21.51
2019-02-02T07:58:41.995Z,21.47
2019-02-02T07:59:41.879Z,21.37
2019-02-02T08:00:42.069Z,21.30
2019-02-02T08:01:41.927Z,21.28
2019-02-02T08:02:41.939Z,21.38
2019-02-02T08:03:42.067Z,21.33
2019-02-02T08:04:41.963Z,21.19
2019-02-02T08:05:42.093Z,21.15
2019-02-02T08:06:42.110Z,21.17
2019-02-02T08:07:42.065Z,21.11
2019-02-02T08:08:42.030Z,21.07
2019-02-02T08:09:42.071Z,21.13
2019-02-02T08:10:42.273Z,21.03
2019-02-02T08:11:42.185Z,21.01
2019-02-02T08:12:42.089Z,21.03
2019-02-02T08:13:42.171Z,20.93
2019-02-02T08:14:42.126Z,20.98
2019-02-02T08:15:42.279Z,20.90
2019-02-02T08:16:42.142Z,20.92
2019-02-02T08:17:42.172Z,20.92
2019-02-02T08:18:42.186Z,20.88
2019-02-02T08:19:42.204Z,20.92
2019-02-02T08:20:42.315Z,20.85
2019-02-02T08:21:42.218Z,20.83
2019-02-02T08:22:42.359Z,20.85
2019-02-02T08:23:42.371Z,20.83
2019-02-02T08:24:42.294Z,20.75
2019-02-02T08:25:42.551Z,20.70
2019-02-02T08:26:42.318Z,20.70
2019-02-02T08:27:42.432Z,20.67
2019-02-02T08:28:42.445Z,20.64
2019-02-02T08:29:42.472Z,20.63
2019-02-02T08:30:52.098Z,20.56
2019-02-02T08:31:42.376Z,20.52
2019-02-02T08:32:42.392Z,20.40
2019-02-02T08:33:45.257Z,20.46
2019-02-02T08:34:42.541Z,20.34
2019-02-02T08:35:42.655Z,20.39
2019-02-02T08:36:42.448Z,20.34
2019-02-02T08:37:42.468Z,20.27
2019-02-02T08:38:42.493Z,20.29
2019-02-02T08:39:42.488Z,20.15
2019-02-02T08:40:42.727Z,20.21
2019-02-02T08:41:42.653Z,20.17
2019-02-02T08:42:42.555Z,20.22
2019-02-02T08:43:42.551Z,20.22
2019-02-02T08:44:42.604Z,20.37
2019-02-02T08:45:42.746Z,20.37
2019-02-02T08:46:42.719Z,20.48
2019-02-02T08:47:42.640Z,20.66
2019-02-02T08:48:42.643Z,20.58
2019-02-02T08:49:42.657Z,20.60
2019-02-02T08:50:42.708Z,20.71
2019-02-02T08:51:42.795Z,20.66
2019-02-02T08:52:42.697Z,20.78
2019-02-02T08:53:42.701Z,20.70
2019-02-02T08:54:42.733Z,20.80
2019-02-02T08:55:42.785Z,20.77
2019-02-02T08:56:42.778Z,20.86
2019-02-02T08:57:42.977Z,20.82
2019-02-02T08:58:42.807Z,20.90
2019-02-02T08:59:42.807Z,21.04
2019-02-02T09:00:42.963Z,21.01
2019-02-02T09:01:42.956Z,21.00
2019-02-02T09:02:42.853Z,21.03
2019-02-02T09:03:42.927Z,20.98
2019-02-02T09:04:42.997Z,21.01
2019-02-02T09:05:42.983Z,21.07
2019-02-02T09:06:43.023Z,21.01
2019-02-02T09:07:43.131Z,21.03
2019-02-02T09:08:42.996Z,21.08
2019-02-02T09:09:42.980Z,21.15
2019-02-02T09:10:43.238Z,21.11
2019-02-02T09:11:42.994Z,21.20
2019-02-02T09:12:43.010Z,21.23
2019-02-02T09:13:43.131Z,21.38
2019-02-02T09:14:43.073Z,21.48
2019-02-02T09:15:43.209Z,21.53
2019-02-02T09:16:43.076Z,21.58
2019-02-02T09:17:43.080Z,21.68
2019-02-02T09:18:43.099Z,21.72
2019-02-02T09:19:43.231Z,21.88
2019-02-02T09:20:43.177Z,22.03
2019-02-02T09:21:43.140Z,22.16
2019-02-02T09:22:43.156Z,22.22
2019-02-02T09:23:43.288Z,22.43
2019-02-02T09:24:43.302Z,22.44
2019-02-02T09:25:43.480Z,22.46
2019-02-02T09:26:43.215Z,22.67
2019-02-02T09:27:43.248Z,22.73
2019-02-02T09:28:43.285Z,22.92
2019-02-02T09:29:43.289Z,23.11
2019-02-02T09:30:43.448Z,23.37
2019-02-02T09:31:43.351Z,23.47
2019-02-02T09:32:43.439Z,23.67
2019-02-02T09:33:43.334Z,23.76
2019-02-02T09:34:43.472Z,23.85
2019-02-02T09:35:43.598Z,23.82
2019-02-02T09:36:43.393Z,23.84
2019-02-02T09:37:43.527Z,23.91
2019-02-02T09:38:43.436Z,23.86
2019-02-02T09:39:43.558Z,23.59
2019-02-02T09:40:43.626Z,23.59
2019-02-02T09:41:43.488Z,23.66
2019-02-02T09:42:43.493Z,23.76
2019-02-02T09:43:43.520Z,23.85
2019-02-02T09:44:43.650Z,23.84
2019-02-02T09:45:43.773Z,23.91
2019-02-02T09:46:43.686Z,23.88
2019-02-02T09:47:43.703Z,23.71
2019-02-02T09:48:43.622Z,23.63
2019-02-02T09:49:43.642Z,23.37
2019-02-02T09:50:43.758Z,23.16
2019-02-02T09:51:43.656Z,22.93
2019-02-02T09:52:43.796Z,22.84
2019-02-02T09:53:43.738Z,22.74
2019-02-02T09:54:43.723Z,22.77
2019-02-02T09:55:43.799Z,22.78
2019-02-02T09:56:43.749Z,22.78
2019-02-02T09:57:43.780Z,22.73
2019-02-02T09:58:43.771Z,22.77
2019-02-02T09:59:43.921Z,22.65
2019-02-02T10:00:44.093Z,22.51
2019-02-02T10:01:43.830Z,22.51
2019-02-02T10:02:45.839Z,22.43
2019-02-02T10:03:43.882Z,22.44
2019-02-02T10:04:43.916Z,22.55
2019-02-02T10:05:44.017Z,22.49
2019-02-02T10:06:44.048Z,22.65
2019-02-02T10:07:43.952Z,22.73
2019-02-02T10:08:43.997Z,22.86
2019-02-02T10:09:44.108Z,22.89
2019-02-02T10:10:44.164Z,22.93
2019-02-02T10:11:44.132Z,23.01
2019-02-02T10:12:44.041Z,23.02
2019-02-02T10:13:44.045Z,23.13
2019-02-02T10:14:44.065Z,23.26
2019-02-02T10:15:44.211Z,23.55
2019-02-02T10:16:44.271Z,23.66
2019-02-02T10:17:44.240Z,23.79
2019-02-02T10:18:44.269Z,23.96
2019-02-02T10:19:44.275Z,24.09
2019-02-02T10:20:44.297Z,24.13
2019-02-02T10:21:44.246Z,24.29
2019-02-02T10:22:44.216Z,24.41
2019-02-02T10:23:44.273Z,24.40
2019-02-02T10:24:44.238Z,24.56
2019-02-02T10:25:44.270Z,24.85
2019-02-02T10:26:44.357Z,24.86
2019-02-02T10:27:44.356Z,24.99
2019-02-02T10:28:44.431Z,25.09
2019-02-02T10:29:44.454Z,25.12
2019-02-02T10:30:44.471Z,25.19
2019-02-02T10:31:44.419Z,25.30
2019-02-02T10:32:44.405Z,25.29
2019-02-02T10:33:44.401Z,25.44
2019-02-02T10:34:44.430Z,25.55
2019-02-02T10:35:44.575Z,25.66
2019-02-02T10:36:44.675Z,25.73
2019-02-02T10:37:44.490Z,25.91
2019-02-02T10:38:44.511Z,26.07
2019-02-02T10:39:44.537Z,26.30
2019-02-02T10:40:44.651Z,26.49
2019-02-02T10:41:44.592Z,26.61
2019-02-02T10:42:44.695Z,26.81
2019-02-02T10:43:44.713Z,26.93
2019-02-02T10:44:44.738Z,27.15
2019-02-02T10:45:44.626Z,27.37
2019-02-02T10:46:44.812Z,27.35
2019-02-02T10:47:44.719Z,27.47
2019-02-02T10:48:44.809Z,27.60
2019-02-02T10:49:44.696Z,27.81
2019-02-02T10:50:44.738Z,27.94
2019-02-02T10:51:44.965Z,28.13
2019-02-02T10:52:44.776Z,28.33
2019-02-02T10:53:44.911Z,28.40
2019-02-02T10:54:44.932Z,28.41
2019-02-02T10:55:44.830Z,28.49
2019-02-02T10:56:45.016Z,28.56
2019-02-02T10:57:44.870Z,28.62
2019-02-02T10:58:44.894Z,28.83
2019-02-02T10:59:44.906Z,29.39
2019-02-02T11:00:44.918Z,29.96
2019-02-02T11:01:51.177Z,30.59
2019-02-02T11:02:45.077Z,31.28
2019-02-02T11:03:45.110Z,31.81
2019-02-02T11:04:45.215Z,32.29
2019-02-02T11:05:45.037Z,32.78
2019-02-02T11:06:45.134Z,33.31
2019-02-02T11:07:45.218Z,33.73
2019-02-02T11:08:45.203Z,34.09
2019-02-02T11:09:45.101Z,34.47
2019-02-02T11:10:45.547Z,34.85
2019-02-02T11:11:45.287Z,35.34
2019-02-02T11:12:45.228Z,35.54
2019-02-02T11:13:45.208Z,35.94
2019-02-02T11:14:45.473Z,36.11
2019-02-02T11:15:45.505Z,36.35
2019-02-02T11:16:45.523Z,36.57
2019-02-02T11:17:45.313Z,36.91
2019-02-02T11:18:45.363Z,37.11
2019-02-02T11:19:45.409Z,37.14
2019-02-02T11:20:45.350Z,37.44
2019-02-02T11:21:45.483Z,37.80
2019-02-02T11:22:45.534Z,37.76
2019-02-02T11:23:45.557Z,38.00
2019-02-02T11:24:45.452Z,38.19
2019-02-02T11:25:45.490Z,38.32
2019-02-02T11:26:45.825Z,38.32
2019-02-02T11:27:45.619Z,37.75
2019-02-02T11:28:45.713Z,37.40
2019-02-02T11:29:45.568Z,37.41
2019-02-02T11:30:45.721Z,37.71
2019-02-02T11:31:45.892Z,37.83
2019-02-02T11:32:45.765Z,38.00
2019-02-02T11:33:45.674Z,38.14
2019-02-02T11:34:45.811Z,38.41
2019-02-02T11:35:45.724Z,38.20
2019-02-02T11:36:45.914Z,37.71
2019-02-02T11:37:45.772Z,37.58
2019-02-02T11:38:45.792Z,37.64
2019-02-02T11:39:45.818Z,37.90
2019-02-02T11:40:45.875Z,37.37
2019-02-02T11:41:45.925Z,37.14
2019-02-02T11:42:46.016Z,37.57
2019-02-02T11:43:46.045Z,37.66
2019-02-02T11:44:46.070Z,37.98
2019-02-02T11:45:46.107Z,37.91
2019-02-02T11:46:46.118Z,38.17
2019-02-02T11:47:46.016Z,38.19
2019-02-02T11:48:46.069Z,38.22
2019-02-02T11:49:46.213Z,38.44
2019-02-02T11:50:46.226Z,38.65
2019-02-02T11:51:46.342Z,38.92
2019-02-02T11:52:46.182Z,39.10
2019-02-02T11:53:46.196Z,39.12
2019-02-02T11:54:46.338Z,39.30
2019-02-02T11:55:46.365Z,39.19
2019-02-02T11:56:46.319Z,38.98
2019-02-02T11:57:46.390Z,39.08
2019-02-02T11:58:46.348Z,39.33
2019-02-02T11:59:46.355Z,39.51
2019-02-02T12:00:46.372Z,39.66
2019-02-02T12:01:46.408Z,39.89
2019-02-02T12:02:49.535Z,40.02
2019-02-02T12:03:46.486Z,40.35
2019-02-02T12:04:46.500Z,40.88
2019-02-02T12:05:46.517Z,41.14
2019-02-02T12:06:49.061Z,41.57
2019-02-02T12:07:46.787Z,41.83
2019-02-02T12:08:49.275Z,41.83
2019-02-02T12:09:46.635Z,41.88
2019-02-02T12:10:46.681Z,41.91
2019-02-02T12:11:46.663Z,41.33
2019-02-02T12:12:46.766Z,40.83
2019-02-02T12:13:46.857Z,40.70
2019-02-02T12:14:46.766Z,40.40
2019-02-02T12:15:46.787Z,40.26
2019-02-02T12:16:46.951Z,40.42
2019-02-02T12:17:46.906Z,40.58
2019-02-02T12:18:46.887Z,40.86
2019-02-02T12:19:46.894Z,41.14
2019-02-02T12:20:47.054Z,41.65
2019-02-02T12:21:46.974Z,42.17
2019-02-02T12:22:47.119Z,42.34
2019-02-02T12:23:47.145Z,42.58
2019-02-02T12:24:47.095Z,42.70
2019-02-02T12:25:47.110Z,42.77
2019-02-02T12:26:47.121Z,42.52
2019-02-02T12:27:47.304Z,42.84
2019-02-02T12:28:47.283Z,42.94
2019-02-02T12:29:47.308Z,42.15
2019-02-02T12:30:47.344Z,42.40
2019-02-02T12:31:47.256Z,42.10
2019-02-02T12:32:47.500Z,42.24
2019-02-02T12:33:47.430Z,42.21
2019-02-02T12:34:47.458Z,42.24
2019-02-02T12:35:47.487Z,42.41
2019-02-02T12:36:47.390Z,42.29
2019-02-02T12:37:47.595Z,42.52
2019-02-02T12:38:47.465Z,42.52
2019-02-02T12:39:47.499Z,42.82
2019-02-02T12:40:47.520Z,43.38
2019-02-02T12:41:47.530Z,43.57
2019-02-02T12:42:47.628Z,43.99
2019-02-02T12:43:47.722Z,44.50
2019-02-02T12:44:47.641Z,45.29
2019-02-02T12:45:47.659Z,46.00
2019-02-02T12:46:47.716Z,46.47
2019-02-02T12:47:47.867Z,46.66
2019-02-02T12:48:47.872Z,47.11
2019-02-02T12:49:47.796Z,47.66
2019-02-02T12:50:47.807Z,48.04
2019-02-02T12:51:47.855Z,48.37
2019-02-02T12:52:47.969Z,48.30